Terminal Aerodrome Forecast
Issued by NWS

Home | Current Version | Previous Version | Text Only | Print | Product List | Glossary On
Versions: 1 2 3 4 5 6 7 8 9 10 11 12 13 14 15 16 17 18 19 20 21
000
FTUS44 KTSA 052320
TAFRVS
TAF
KRVS 052320Z 0600/0624 15007KT P6SM OVC020
      TEMPO 0600/0604 15005KT P6SM SCT020 BKN150 BKN250
     FM060400 VRB06KT P6SM BKN020
      TEMPO 0604/0608 3SM BR
     FM060900 36010KT P6SM OVC025
      TEMPO 0609/0613 4SM -DZ BR BKN012
     FM061600 35011G17KT P6SM SCT025=

USA.gov is the U.S. government's official web portal to all federal, state and local government web resources and services.